Time;durP1;ratioP1;P1;durP2;ratioP2;P2;SDS_P1;SDS_P2;PMS_P1;PMS_P2;Temp;Humidity;BMP_temperature;BMP_pressure;BME280_temperature;BME280_humidity;BME280_pressure;Samples;Min_cycle;Max_cycle;Signal;HPM_P1;HPM_P2
2023/11/01 00:01:58;;;;;;;41.42;25.05;;;8.10;99.90;;;;;;5108867;28;20153;-76
2023/11/01 00:04:23;;;;;;;42.65;24.98;;;8.10;99.90;;;;;;5106236;28;20012;-76
2023/11/01 00:06:49;;;;;;;38.42;22.60;;;8.10;99.90;;;;;;5106089;28;20031;-82
2023/11/01 00:09:15;;;;;;;42.63;24.05;;;8.20;99.90;;;;;;5109435;28;20023;-81
2023/11/01 00:11:40;;;;;;;36.53;21.52;;;8.10;99.90;;;;;;5108720;28;20370;-77
2023/11/01 00:14:06;;;;;;;40.05;22.88;;;8.10;99.90;;;;;;5109335;28;20477;-77
2023/11/01 00:16:32;;;;;;;37.47;21.15;;;8.10;99.90;;;;;;5111481;28;20023;-81
2023/11/01 00:18:57;;;;;;;33.40;19.98;;;8.10;99.90;;;;;;5110160;28;20024;-82
2023/11/01 00:21:23;;;;;;;38.30;23.67;;;8.10;99.90;;;;;;5110800;28;20020;-78
2023/11/01 00:23:48;;;;;;;37.13;23.33;;;8.10;99.90;;;;;;5110143;28;20532;-78
2023/11/01 00:26:14;;;;;;;40.33;23.42;;;8.10;99.90;;;;;;5111215;28;20015;-82
2023/11/01 00:28:40;;;;;;;40.75;23.20;;;8.10;99.90;;;;;;5112677;28;20030;-82
2023/11/01 00:31:05;;;;;;;40.38;23.23;;;8.10;99.90;;;;;;5104107;28;20405;-78
2023/11/01 00:33:31;;;;;;;32.92;19.75;;;8.10;99.90;;;;;;5108345;28;20111;-78
2023/11/01 00:35:56;;;;;;;32.90;18.30;;;8.00;99.90;;;;;;5103535;28;20020;-82
2023/11/01 00:38:23;;;;;;;40.42;23.48;;;8.00;99.90;;;;;;5106556;28;20118;-78
2023/11/01 00:40:49;;;;;;;40.58;22.40;;;8.00;99.90;;;;;;5111559;28;20043;-78
2023/11/01 00:43:15;;;;;;;35.85;22.08;;;8.00;99.90;;;;;;5112547;28;20051;-77
2023/11/01 00:45:40;;;;;;;31.60;20.33;;;8.00;99.90;;;;;;5111710;28;20481;-82
2023/11/01 00:48:06;;;;;;;38.50;21.05;;;8.00;99.90;;;;;;5113467;28;20036;-82
2023/11/01 00:50:32;;;;;;;42.97;21.50;;;7.90;99.90;;;;;;5113404;28;20066;-77
2023/11/01 00:52:57;;;;;;;42.30;23.77;;;7.90;99.90;;;;;;5110531;28;20421;-82
2023/11/01 00:55:23;;;;;;;47.28;23.75;;;7.90;99.90;;;;;;5101899;28;20016;-78
2023/11/01 00:57:49;;;;;;;44.90;25.67;;;7.90;99.90;;;;;;5102035;28;20037;-81
2023/11/01 01:00:16;;;;;;;47.30;25.52;;;7.90;99.90;;;;;;5135936;27;20016;-82
2023/11/01 01:02:42;;;;;;;43.90;24.05;;;7.90;99.90;;;;;;5110430;28;20072;-78
2023/11/01 01:05:08;;;;;;;42.95;24.08;;;7.90;99.90;;;;;;5111592;28;20024;-81
2023/11/01 01:07:33;;;;;;;42.30;24.15;;;7.80;99.90;;;;;;5111707;28;20034;-77
2023/11/01 01:09:59;;;;;;;48.10;23.70;;;7.80;99.90;;;;;;5111628;28;20012;-77
2023/11/01 01:12:25;;;;;;;44.03;24.05;;;7.80;99.90;;;;;;5113201;28;20058;-77
2023/11/01 01:14:50;;;;;;;37.42;22.02;;;7.80;99.90;;;;;;5110433;28;20438;-77
2023/11/01 01:17:16;;;;;;;38.13;22.63;;;7.80;99.90;;;;;;5111932;28;20027;-77
2023/11/01 01:19:41;;;;;;;41.70;22.38;;;7.80;99.90;;;;;;5108273;28;20050;-82
2023/11/01 01:22:07;;;;;;;39.80;23.60;;;7.80;99.90;;;;;;5103839;28;20493;-77
2023/11/01 01:24:33;;;;;;;43.20;24.27;;;7.70;99.90;;;;;;5111542;28;20012;-77
2023/11/01 01:26:58;;;;;;;43.55;24.85;;;7.70;99.90;;;;;;5110304;28;20045;-77
2023/11/01 01:29:24;;;;;;;47.40;24.73;;;7.70;99.90;;;;;;5110195;28;20488;-77
2023/11/01 01:31:50;;;;;;;43.55;26.15;;;7.80;99.90;;;;;;5109996;28;20059;-77
2023/11/01 01:34:16;;;;;;;44.03;25.48;;;7.80;99.90;;;;;;5111439;28;20032;-77
2023/11/01 01:36:41;;;;;;;44.38;24.60;;;7.80;99.90;;;;;;5112911;28;20026;-77
2023/11/01 01:39:07;;;;;;;40.92;22.80;;;7.80;99.90;;;;;;5112936;28;20426;-77
2023/11/01 01:41:33;;;;;;;41.83;23.30;;;7.80;99.90;;;;;;5111507;28;20012;-77
2023/11/01 01:43:58;;;;;;;42.10;23.73;;;7.80;99.90;;;;;;5111548;28;20109;-77
2023/11/01 01:46:28;;;;;;;45.03;24.13;;;7.80;99.90;;;;;;5111685;28;20020;-77
2023/11/01 01:48:54;;;;;;;44.53;24.77;;;7.80;99.90;;;;;;5111981;28;20032;-81
2023/11/01 01:51:20;;;;;;;47.33;25.27;;;7.80;99.90;;;;;;5108591;28;20018;-77
2023/11/01 01:53:47;;;;;;;46.42;26.02;;;7.70;99.90;;;;;;5144977;27;20103;-81
2023/11/01 01:56:14;;;;;;;46.05;24.60;;;7.70;99.90;;;;;;5112924;28;20020;-81
2023/11/01 01:58:41;;;;;;;43.90;24.38;;;7.80;99.90;;;;;;5111432;28;20047;-80
2023/11/01 02:01:08;;;;;;;45.03;24.77;;;7.70;99.90;;;;;;5112945;28;20023;-77
2023/11/01 02:03:35;;;;;;;36.05;21.02;;;7.70;99.90;;;;;;5111339;28;20493;-77
2023/11/01 02:06:02;;;;;;;37.47;22.63;;;7.70;99.90;;;;;;5112010;28;20055;-81
2023/11/01 02:08:29;;;;;;;37.83;21.13;;;7.70;99.90;;;;;;5101855;28;20126;-81
2023/11/01 02:10:55;;;;;;;37.17;21.40;;;7.70;99.90;;;;;;5108849;28;20059;-78
2023/11/01 02:13:21;;;;;;;43.20;20.77;;;7.70;99.90;;;;;;5112327;28;20050;-81
2023/11/01 02:15:47;;;;;;;39.25;21.15;;;7.70;99.90;;;;;;5111356;28;20031;-80
2023/11/01 02:18:13;;;;;;;34.85;20.30;;;7.70;99.90;;;;;;5100648;28;20065;-81
2023/11/01 02:20:42;;;;;;;32.85;19.13;;;7.70;99.90;;;;;;5108058;28;20473;-81
2023/11/01 02:23:16;;;;;;;31.67;19.13;;;7.70;99.90;;;;;;5107324;28;20485;-77
2023/11/01 02:25:43;;;;;;;36.03;20.23;;;7.70;99.90;;;;;;5108035;28;20055;-81
2023/11/01 02:28:11;;;;;;;32.60;19.65;;;7.70;99.90;;;;;;5139849;27;20488;-81
2023/11/01 02:30:38;;;;;;;31.63;18.38;;;7.70;99.90;;;;;;5106844;28;20031;-81
2023/11/01 02:33:04;;;;;;;34.20;19.85;;;7.80;99.90;;;;;;5109922;28;20016;-81
2023/11/01 02:35:30;;;;;;;27.42;16.70;;;7.80;99.90;;;;;;5104582;28;20369;-81
2023/11/01 02:37:55;;;;;;;32.92;19.55;;;7.80;99.90;;;;;;5130564;27;20027;-81
2023/11/01 02:40:21;;;;;;;36.05;20.70;;;7.80;99.90;;;;;;5110074;28;20048;-81
2023/11/01 02:42:48;;;;;;;35.25;19.70;;;7.80;99.90;;;;;;5112253;28;20039;-77
2023/11/01 02:45:15;;;;;;;34.03;20.63;;;7.80;99.90;;;;;;5112022;28;20239;-80
2023/11/01 02:47:42;;;;;;;38.53;23.00;;;7.80;99.90;;;;;;5114759;28;20063;-80
2023/11/01 02:50:13;;;;;;;39.90;21.92;;;7.70;99.90;;;;;;5113464;28;20022;-76
2023/11/01 02:52:40;;;;;;;35.25;20.38;;;7.70;99.90;;;;;;5113163;28;20476;-80
2023/11/01 02:55:14;;;;;;;39.83;22.13;;;7.70;99.90;;;;;;5114628;28;20043;-76
2023/11/01 02:57:40;;;;;;;38.80;22.40;;;7.80;99.90;;;;;;5110477;28;20020;-76
2023/11/01 03:00:08;;;;;;;48.58;24.33;;;7.70;99.90;;;;;;5113529;28;20077;-76
2023/11/01 03:02:37;;;;;;;41.03;22.45;;;7.70;99.90;;;;;;5111932;28;20015;-78
2023/11/01 03:05:04;;;;;;;34.22;20.38;;;7.70;99.90;;;;;;5113000;28;20024;-78
2023/11/01 03:07:31;;;;;;;33.85;21.08;;;7.70;99.90;;;;;;5112744;28;20503;-80
2023/11/01 03:09:56;;;;;;;34.92;20.15;;;7.60;99.90;;;;;;5112768;28;20020;-76
2023/11/01 03:12:22;;;;;;;33.28;18.85;;;7.70;99.90;;;;;;5113068;28;20015;-76
2023/11/01 03:14:48;;;;;;;32.45;19.08;;;7.60;99.90;;;;;;5111210;28;20024;-76
2023/11/01 03:17:14;;;;;;;33.65;20.42;;;7.50;99.90;;;;;;5107873;28;20020;-75
2023/11/01 03:19:40;;;;;;;35.45;20.50;;;7.60;99.90;;;;;;5113985;28;20040;-75
2023/11/01 03:22:06;;;;;;;36.13;20.55;;;7.50;99.90;;;;;;5115757;28;20039;-80
2023/11/01 03:24:32;;;;;;;34.40;20.65;;;7.60;99.90;;;;;;5106647;28;20024;-76
2023/11/01 03:26:58;;;;;;;37.38;19.95;;;7.50;99.90;;;;;;5108891;28;20070;-76
2023/11/01 03:29:27;;;;;;;33.53;19.60;;;7.50;99.90;;;;;;5114073;28;20016;-79
2023/11/01 03:31:53;;;;;;;31.92;18.73;;;7.50;99.90;;;;;;5112290;28;20063;-77
2023/11/01 03:34:19;;;;;;;34.58;20.65;;;7.40;99.90;;;;;;5110331;28;20114;-76
2023/11/01 03:36:44;;;;;;;37.58;21.17;;;7.40;99.90;;;;;;5113526;28;20074;-76
2023/11/01 03:39:10;;;;;;;32.33;19.25;;;7.40;99.90;;;;;;5108653;28;20116;-79
2023/11/01 03:41:43;;;;;;;33.10;19.75;;;7.40;99.90;;;;;;5111759;28;20023;-76
2023/11/01 03:44:09;;;;;;;30.88;19.42;;;7.30;99.90;;;;;;5111855;28;20027;-75
2023/11/01 03:46:35;;;;;;;29.10;19.17;;;7.30;99.90;;;;;;5112079;28;20020;-80
2023/11/01 03:49:01;;;;;;;31.88;19.23;;;7.30;99.90;;;;;;5113122;28;20035;-80
2023/11/01 03:51:27;;;;;;;35.42;21.02;;;7.30;99.90;;;;;;5106939;28;20189;-80
2023/11/01 03:53:53;;;;;;;31.30;19.48;;;7.30;99.90;;;;;;5113125;28;20027;-76
2023/11/01 03:56:20;;;;;;;32.55;18.27;;;7.20;99.90;;;;;;5108009;28;20008;-80
2023/11/01 03:58:46;;;;;;;30.30;17.17;;;7.20;99.90;;;;;;5113613;28;20112;-80
2023/11/01 04:01:12;;;;;;;30.30;18.45;;;7.20;99.90;;;;;;5111515;28;20107;-80
2023/11/01 04:03:37;;;;;;;27.70;16.77;;;7.20;99.90;;;;;;5113629;28;20481;-76
2023/11/01 04:06:03;;;;;;;32.95;19.05;;;7.10;99.90;;;;;;5102423;28;20016;-76
2023/11/01 04:08:29;;;;;;;28.23;15.45;;;7.10;99.90;;;;;;5112200;28;20036;-76
2023/11/01 04:10:55;;;;;;;31.85;18.67;;;7.10;99.90;;;;;;5102136;28;20026;-80
2023/11/01 04:13:20;;;;;;;30.33;17.92;;;7.10;99.90;;;;;;5132208;27;20488;-79
2023/11/01 04:15:46;;;;;;;30.67;18.02;;;7.10;99.90;;;;;;5108180;28;20470;-80
2023/11/01 04:18:12;;;;;;;29.90;17.85;;;7.20;99.90;;;;;;5112722;28;20140;-80
2023/11/01 04:20:37;;;;;;;29.70;17.25;;;7.20;99.90;;;;;;5114168;28;20028;-80
2023/11/01 04:23:03;;;;;;;30.63;18.58;;;7.20;99.90;;;;;;5113439;28;20114;-76
2023/11/01 04:25:29;;;;;;;30.85;17.52;;;7.20;99.90;;;;;;5114207;28;20016;-76
2023/11/01 04:27:56;;;;;;;30.95;18.48;;;7.10;99.90;;;;;;5113914;28;20057;-80
2023/11/01 04:30:22;;;;;;;30.08;16.98;;;7.20;99.90;;;;;;5112999;28;20066;-80
2023/11/01 04:32:49;;;;;;;29.88;18.00;;;7.20;99.90;;;;;;5112773;28;20684;-76
2023/11/01 04:35:15;;;;;;;28.92;16.42;;;7.20;99.90;;;;;;5114119;28;20411;-76
2023/11/01 04:37:42;;;;;;;28.90;18.20;;;7.20;99.90;;;;;;5113799;28;20038;-76
2023/11/01 04:40:08;;;;;;;31.27;18.30;;;7.20;99.90;;;;;;5112721;28;20023;-80
2023/11/01 04:42:40;;;;;;;27.65;17.52;;;7.20;99.90;;;;;;5112785;28;20122;-80
2023/11/01 04:45:08;;;;;;;27.80;17.23;;;7.20;99.90;;;;;;5114069;28;20016;-77
2023/11/01 04:47:37;;;;;;;30.70;17.75;;;7.20;99.90;;;;;;5113662;28;20028;-76
2023/11/01 04:50:04;;;;;;;29.95;18.13;;;7.20;99.90;;;;;;5112606;28;20469;-76
2023/11/01 04:52:30;;;;;;;32.05;19.63;;;7.20;99.90;;;;;;5112341;28;20023;-80
2023/11/01 04:54:56;;;;;;;29.13;18.20;;;7.10;99.90;;;;;;5112518;28;20415;-80
2023/11/01 04:57:21;;;;;;;29.20;17.00;;;7.10;99.90;;;;;;5112525;28;20023;-76
2023/11/01 04:59:47;;;;;;;32.80;17.92;;;7.10;99.90;;;;;;5109578;28;20114;-76
2023/11/01 05:02:12;;;;;;;29.48;16.60;;;7.10;99.90;;;;;;5126754;27;20047;-76
2023/11/01 05:04:38;;;;;;;26.98;17.60;;;7.10;99.90;;;;;;5106449;28;20020;-76
2023/11/01 05:07:04;;;;;;;26.13;15.90;;;7.10;99.90;;;;;;5111966;28;20028;-76
2023/11/01 05:09:30;;;;;;;29.55;16.45;;;7.10;99.90;;;;;;5109009;28;20456;-75
2023/11/01 05:11:56;;;;;;;28.40;15.63;;;7.10;99.90;;;;;;5113377;28;20030;-75
2023/11/01 05:14:21;;;;;;;27.20;16.58;;;7.10;99.90;;;;;;5113270;28;20020;-76
2023/11/01 05:16:47;;;;;;;23.25;15.05;;;7.10;99.90;;;;;;5113551;28;20024;-77
2023/11/01 05:19:13;;;;;;;27.83;15.75;;;7.10;99.90;;;;;;5113139;28;20515;-79
2023/11/01 05:21:38;;;;;;;24.02;15.55;;;7.10;99.90;;;;;;5103607;28;20031;-75
2023/11/01 05:24:05;;;;;;;24.08;15.35;;;7.10;99.90;;;;;;5105800;28;20028;-75
2023/11/01 05:26:34;;;;;;;22.77;15.15;;;7.10;99.90;;;;;;5100799;28;20062;-76
2023/11/01 05:29:00;;;;;;;24.35;16.05;;;7.10;99.90;;;;;;5110871;28;20038;-76
2023/11/01 05:31:26;;;;;;;24.65;15.32;;;7.10;99.90;;;;;;5112248;28;20100;-80
2023/11/01 05:33:52;;;;;;;24.50;15.77;;;7.10;99.90;;;;;;5111228;28;20023;-80
2023/11/01 05:36:18;;;;;;;24.20;15.25;;;7.10;99.90;;;;;;5113261;28;20042;-80
2023/11/01 05:38:44;;;;;;;23.77;15.80;;;7.10;99.90;;;;;;5112940;28;20024;-80
2023/11/01 05:41:10;;;;;;;26.52;16.27;;;7.10;99.90;;;;;;5113210;28;20111;-80
2023/11/01 05:43:39;;;;;;;25.00;16.27;;;7.10;99.90;;;;;;5112786;28;20027;-80
2023/11/01 05:46:05;;;;;;;21.75;14.82;;;7.10;99.90;;;;;;5112958;28;20040;-80
2023/11/01 05:48:32;;;;;;;23.27;15.38;;;7.10;99.90;;;;;;5112748;28;20461;-80
2023/11/01 05:51:04;;;;;;;23.20;16.02;;;7.10;99.90;;;;;;5104429;28;20035;-80
2023/11/01 05:53:33;;;;;;;20.00;14.50;;;7.10;99.90;;;;;;5108482;28;20031;-80
2023/11/01 05:56:00;;;;;;;24.25;15.52;;;7.10;99.90;;;;;;5113193;28;20020;-77
2023/11/01 05:58:26;;;;;;;25.83;15.15;;;7.10;99.90;;;;;;5107762;28;20027;-80
2023/11/01 06:00:53;;;;;;;24.63;14.77;;;7.20;99.90;;;;;;5091926;28;20078;-80
2023/11/01 06:03:19;;;;;;;26.00;16.05;;;7.20;99.90;;;;;;5108944;28;20102;-81
2023/11/01 06:05:45;;;;;;;24.63;15.23;;;7.20;99.90;;;;;;5112870;28;20019;-75
2023/11/01 06:08:12;;;;;;;24.77;14.95;;;7.20;99.90;;;;;;5131715;27;20027;-76
2023/11/01 06:10:38;;;;;;;23.00;14.73;;;7.20;99.90;;;;;;5111327;28;20016;-76
2023/11/01 06:13:07;;;;;;;23.50;16.05;;;7.20;99.90;;;;;;5112484;28;20016;-76
2023/11/01 06:15:34;;;;;;;25.55;15.32;;;7.20;99.90;;;;;;5110891;28;20119;-76
2023/11/01 06:18:00;;;;;;;21.42;14.15;;;7.20;99.90;;;;;;5106894;28;20028;-76
2023/11/01 06:20:26;;;;;;;23.05;15.00;;;7.20;99.90;;;;;;5115431;28;20012;-76
2023/11/01 06:22:51;;;;;;;24.13;15.63;;;7.30;99.90;;;;;;5114162;28;20448;-76
2023/11/01 06:25:20;;;;;;;20.90;13.38;;;7.30;99.90;;;;;;5115189;28;20059;-76
2023/11/01 06:27:45;;;;;;;27.10;15.73;;;7.30;99.90;;;;;;5115249;28;20035;-80
2023/11/01 06:30:13;;;;;;;24.25;16.23;;;7.30;99.90;;;;;;5116694;28;20063;-80
2023/11/01 06:32:39;;;;;;;21.50;15.07;;;7.30;99.90;;;;;;5115228;28;20110;-81
2023/11/01 06:35:05;;;;;;;22.63;14.75;;;7.30;99.90;;;;;;5108330;28;20118;-82
2023/11/01 06:37:31;;;;;;;22.50;13.57;;;7.30;99.90;;;;;;5113180;28;20112;-80
2023/11/01 06:39:57;;;;;;;21.67;14.18;;;7.40;99.90;;;;;;5116565;28;20473;-80
2023/11/01 06:42:22;;;;;;;24.40;15.30;;;7.40;99.90;;;;;;5114804;28;20019;-76
2023/11/01 06:44:48;;;;;;;19.98;14.25;;;7.40;99.90;;;;;;5114924;28;20460;-76
2023/11/01 06:47:14;;;;;;;20.33;13.38;;;7.50;99.90;;;;;;5115826;28;20026;-76
2023/11/01 06:49:39;;;;;;;20.33;13.85;;;7.50;99.90;;;;;;5114871;28;20461;-76
2023/11/01 06:52:08;;;;;;;23.80;13.65;;;7.60;99.90;;;;;;5109444;28;20012;-76
2023/11/01 06:54:38;;;;;;;22.33;13.75;;;7.60;99.90;;;;;;5114680;28;20020;-77
2023/11/01 06:57:04;;;;;;;22.48;13.82;;;7.60;99.90;;;;;;5114446;28;20019;-76
2023/11/01 06:59:29;;;;;;;19.73;14.20;;;7.60;99.90;;;;;;5114613;28;20601;-76
2023/11/01 07:01:55;;;;;;;21.58;13.88;;;7.70;99.90;;;;;;5111585;28;20536;-76
2023/11/01 07:04:20;;;;;;;16.45;13.00;;;7.70;99.90;;;;;;5113985;28;20059;-76
2023/11/01 07:06:46;;;;;;;22.70;13.85;;;7.70;99.90;;;;;;5132515;27;20046;-79
2023/11/01 07:09:12;;;;;;;19.58;13.15;;;7.70;99.90;;;;;;5113961;28;20024;-75
2023/11/01 07:11:38;;;;;;;18.67;12.80;;;7.70;99.90;;;;;;5112938;28;20034;-76
2023/11/01 07:14:04;;;;;;;19.30;14.18;;;7.70;99.90;;;;;;5105169;28;20019;-76
2023/11/01 07:16:35;;;;;;;18.27;12.80;;;7.80;99.90;;;;;;5112462;28;20480;-77
2023/11/01 07:19:01;;;;;;;19.88;12.05;;;7.80;99.90;;;;;;5112220;28;20051;-76
2023/11/01 07:21:27;;;;;;;19.05;12.68;;;7.80;99.90;;;;;;5103547;28;20050;-78
2023/11/01 07:23:52;;;;;;;17.85;12.38;;;7.90;99.90;;;;;;5113667;28;20064;-76
2023/11/01 07:26:18;;;;;;;19.13;12.77;;;7.90;99.90;;;;;;5113631;28;20036;-77
2023/11/01 07:28:47;;;;;;;16.77;11.35;;;8.00;99.90;;;;;;5113777;28;20038;-77
2023/11/01 07:31:13;;;;;;;18.20;12.05;;;8.10;99.90;;;;;;5114347;28;20043;-77
2023/11/01 07:33:40;;;;;;;18.20;11.80;;;8.30;99.90;;;;;;5114026;28;20110;-80
2023/11/01 07:36:08;;;;;;;18.77;12.65;;;8.40;99.90;;;;;;5114302;28;20019;-77
2023/11/01 07:38:34;;;;;;;16.83;12.32;;;8.40;99.90;;;;;;5108273;28;20023;-76
2023/11/01 07:40:59;;;;;;;18.55;12.40;;;8.40;99.90;;;;;;5113757;28;20445;-77
2023/11/01 07:43:25;;;;;;;15.55;11.50;;;8.40;99.90;;;;;;5109637;28;20047;-76
2023/11/01 07:45:51;;;;;;;16.30;12.13;;;8.40;99.90;;;;;;5114986;28;20072;-77
2023/11/01 07:48:16;;;;;;;18.30;11.05;;;8.50;99.90;;;;;;5113168;28;20028;-77
2023/11/01 07:50:42;;;;;;;17.88;10.77;;;8.60;99.90;;;;;;5108860;28;20027;-77
2023/11/01 07:53:08;;;;;;;18.15;11.70;;;8.70;99.90;;;;;;5096828;28;20028;-76
2023/11/01 07:55:34;;;;;;;17.33;11.48;;;8.80;99.90;;;;;;5104835;28;20411;-77
2023/11/01 07:58:00;;;;;;;13.98;10.00;;;8.80;99.90;;;;;;5106050;28;20038;-76
2023/11/01 08:00:26;;;;;;;13.60;9.95;;;8.90;99.90;;;;;;5113041;28;20069;-76
2023/11/01 08:02:53;;;;;;;17.58;9.98;;;9.00;99.90;;;;;;5112790;27;20024;-76
2023/11/01 08:05:22;;;;;;;13.02;9.98;;;9.00;99.90;;;;;;5113108;28;20028;-76
2023/11/01 08:07:47;;;;;;;13.95;9.77;;;9.20;99.90;;;;;;5100041;28;20412;-77
2023/11/01 08:10:13;;;;;;;15.90;10.23;;;9.20;99.90;;;;;;5104162;28;20030;-77
2023/11/01 08:12:39;;;;;;;14.23;9.48;;;9.30;99.90;;;;;;5109899;28;20019;-77
2023/11/01 08:15:05;;;;;;;11.70;9.68;;;9.40;99.90;;;;;;5110997;28;20461;-77
2023/11/01 08:17:31;;;;;;;14.95;9.38;;;9.50;99.90;;;;;;5109446;28;20438;-76
2023/11/01 08:19:57;;;;;;;15.57;10.55;;;9.60;99.90;;;;;;5110159;28;20019;-77
2023/11/01 08:22:23;;;;;;;15.18;10.13;;;9.80;99.90;;;;;;5112034;28;20023;-77
2023/11/01 08:24:48;;;;;;;17.67;10.10;;;9.90;99.90;;;;;;5110586;28;20119;-81
2023/11/01 08:27:14;;;;;;;17.92;9.52;;;10.00;99.90;;;;;;5106493;28;20023;-81
2023/11/01 08:29:42;;;;;;;15.48;8.95;;;10.10;99.90;;;;;;5113468;28;20023;-82
2023/11/01 08:32:11;;;;;;;14.25;10.05;;;10.20;99.90;;;;;;5113974;28;20024;-82
2023/11/01 08:34:37;;;;;;;11.77;8.25;;;10.30;99.90;;;;;;5112675;28;20038;-82
2023/11/01 08:37:04;;;;;;;11.93;7.88;;;10.30;99.90;;;;;;5112422;28;20024;-82
2023/11/01 08:39:30;;;;;;;12.05;9.02;;;10.40;99.90;;;;;;5109486;28;20089;-82
2023/11/01 08:41:59;;;;;;;11.55;7.90;;;10.40;99.90;;;;;;5109317;28;20099;-82
2023/11/01 08:44:25;;;;;;;11.05;7.57;;;10.40;99.90;;;;;;5111320;28;20055;-81
2023/11/01 08:46:54;;;;;;;11.68;7.60;;;10.50;99.90;;;;;;5107849;28;20034;-82
2023/11/01 08:49:20;;;;;;;9.25;7.55;;;10.60;99.90;;;;;;5113415;28;20376;-82
2023/11/01 08:51:47;;;;;;;8.93;6.93;;;10.70;99.90;;;;;;5112121;28;20544;-83
2023/11/01 08:54:13;;;;;;;9.07;6.45;;;10.90;99.90;;;;;;5109809;28;20035;-82
2023/11/01 08:56:40;;;;;;;9.60;6.22;;;11.00;99.90;;;;;;5104481;28;20020;-82
2023/11/01 08:59:06;;;;;;;13.60;9.15;;;11.10;99.90;;;;;;5111939;28;20525;-82
2023/11/01 09:01:33;;;;;;;13.45;7.93;;;11.10;99.90;;;;;;5112012;28;20473;-82
2023/11/01 09:03:59;;;;;;;10.77;7.18;;;11.20;99.90;;;;;;5113126;28;20022;-83
2023/11/01 09:06:25;;;;;;;8.77;6.45;;;11.20;99.90;;;;;;5111849;28;20426;-83
2023/11/01 09:08:51;;;;;;;12.00;6.70;;;11.30;99.90;;;;;;5112941;28;20028;-82
2023/11/01 09:11:16;;;;;;;7.85;5.82;;;11.30;99.90;;;;;;5111571;28;20457;-83
2023/11/01 09:13:45;;;;;;;7.32;4.72;;;11.30;99.90;;;;;;5113190;28;20026;-83
2023/11/01 09:16:11;;;;;;;8.88;5.53;;;11.30;99.90;;;;;;5108151;28;20035;-84
2023/11/01 09:18:37;;;;;;;6.65;5.10;;;11.40;99.90;;;;;;5104728;28;20020;-83
2023/11/01 09:21:02;;;;;;;7.68;5.15;;;11.40;99.90;;;;;;5099377;28;20132;-82
2023/11/01 09:23:28;;;;;;;5.68;4.32;;;11.50;99.90;;;;;;5101524;28;20153;-83
2023/11/01 09:25:54;;;;;;;8.60;4.60;;;11.40;99.90;;;;;;5109272;28;20489;-82
2023/11/01 09:28:19;;;;;;;5.53;4.15;;;11.50;99.90;;;;;;5111365;28;20490;-82
2023/11/01 09:30:45;;;;;;;6.07;4.65;;;11.40;99.90;;;;;;5112506;28;20055;-83
2023/11/01 09:33:11;;;;;;;5.60;3.85;;;11.50;99.90;;;;;;5113118;28;20068;-83
2023/11/01 09:35:38;;;;;;;6.72;3.90;;;11.60;99.90;;;;;;5112740;28;20020;-77
2023/11/01 09:38:04;;;;;;;5.45;3.83;;;11.60;99.90;;;;;;5112548;28;20031;-78
2023/11/01 09:40:29;;;;;;;5.25;3.30;;;11.60;99.90;;;;;;5109702;28;20031;-78
2023/11/01 09:42:56;;;;;;;5.72;3.42;;;11.70;99.90;;;;;;5098068;28;20035;-77
2023/11/01 09:45:22;;;;;;;5.60;3.45;;;11.70;99.90;;;;;;5110280;28;20039;-78
2023/11/01 09:47:50;;;;;;;6.25;3.67;;;11.70;99.90;;;;;;5109552;28;20066;-78
2023/11/01 09:50:17;;;;;;;6.45;3.20;;;11.80;99.90;;;;;;5110496;28;20063;-78
2023/11/01 09:52:43;;;;;;;5.13;3.58;;;11.90;99.90;;;;;;5097024;28;20019;-78
2023/11/01 09:55:12;;;;;;;5.35;3.72;;;11.90;99.90;;;;;;5109207;28;20030;-78
2023/11/01 09:57:41;;;;;;;4.75;3.40;;;11.90;99.90;;;;;;5106965;28;20035;-78
2023/11/01 10:00:08;;;;;;;6.53;3.38;;;11.90;99.90;;;;;;5109298;28;20068;-78
2023/11/01 10:02:33;;;;;;;6.80;3.72;;;12.00;99.90;;;;;;5110688;28;20020;-78
2023/11/01 10:04:59;;;;;;;5.65;3.40;;;12.00;99.90;;;;;;5110197;28;20372;-78
2023/11/01 10:07:25;;;;;;;6.10;3.92;;;12.00;99.90;;;;;;5108921;28;20031;-78
2023/11/01 10:09:51;;;;;;;4.97;2.97;;;12.10;99.90;;;;;;5110986;28;20481;-78
2023/11/01 10:12:17;;;;;;;4.70;3.10;;;12.20;99.90;;;;;;5111594;28;20020;-78
2023/11/01 10:14:46;;;;;;;5.55;3.08;;;12.30;99.90;;;;;;5109819;28;20389;-78
2023/11/01 10:17:11;;;;;;;5.40;2.80;;;12.30;99.90;;;;;;5080695;28;20693;-79
2023/11/01 10:19:44;;;;;;;5.53;2.97;;;12.30;99.90;;;;;;5110833;28;20027;-78
2023/11/01 10:22:11;;;;;;;;;;;12.20;99.90;;;;;;5112694;28;20027;-78
2023/11/01 10:24:36;;;;;;;3.83;2.85;;;12.30;99.90;;;;;;5107552;28;19914;-78
2023/11/01 10:27:02;;;;;;;5.32;3.10;;;12.20;99.90;;;;;;5110808;28;20020;-78
2023/11/01 10:29:28;;;;;;;4.03;2.70;;;12.20;99.90;;;;;;5107014;28;20474;-77
2023/11/01 10:31:58;;;;;;;3.83;2.65;;;12.20;99.90;;;;;;5107101;28;20676;-77
2023/11/01 10:34:31;;;;;;;8.40;2.50;;;12.20;99.90;;;;;;5097685;28;20026;-74
2023/11/01 10:36:57;;;;;;;;;;;12.20;99.90;;;;;;5112883;28;20027;-76
2023/11/01 10:39:24;;;;;;;4.30;2.40;;;12.20;99.90;;;;;;5112069;28;19986;-76
2023/11/01 10:41:52;;;;;;;6.32;2.72;;;12.30;99.90;;;;;;5111005;28;20401;-77
2023/11/01 10:44:20;;;;;;;4.82;3.05;;;12.20;99.90;;;;;;5110146;28;20031;-77
2023/11/01 10:46:47;;;;;;;4.18;2.67;;;12.20;99.90;;;;;;5100988;28;20020;-77
2023/11/01 10:49:13;;;;;;;6.05;2.67;;;12.20;99.90;;;;;;5112070;28;20024;-76
2023/11/01 10:51:40;;;;;;;8.27;3.42;;;12.20;99.90;;;;;;5106655;28;20027;-77
2023/11/01 10:54:07;;;;;;;5.50;3.13;;;12.20;99.90;;;;;;5104219;28;20051;-76
2023/11/01 10:56:33;;;;;;;6.65;2.30;;;12.20;99.90;;;;;;5106376;28;20026;-76
2023/11/01 10:59:25;;;;;;;3.63;3.05;;;12.20;99.90;;;;;;5103241;28;20107;-75
2023/11/01 11:01:59;;;;;;;4.80;2.55;;;12.30;99.90;;;;;;5085904;28;20032;-76
2023/11/01 11:04:36;;;;;;;22.65;9.05;;;12.30;99.90;;;;;;5109508;28;20106;-76
2023/11/01 11:07:37;;;;;;;17.23;7.05;;;12.30;99.90;;;;;;5114146;28;20030;-76
2023/11/01 11:10:23;;;;;;;9.80;4.15;;;12.40;99.90;;;;;;5111945;28;20031;-75
2023/11/01 11:13:07;;;;;;;46.58;20.55;;;12.40;99.90;;;;;;5114344;28;20031;-76
2023/11/01 11:15:50;;;;;;;15.20;6.63;;;12.40;99.90;;;;;;5113750;28;20053;-76
2023/11/01 11:18:28;;;;;;;8.30;3.13;;;12.40;99.90;;;;;;5114763;28;20039;-76
2023/11/01 11:20:55;;;;;;;10.25;4.22;;;12.50;99.90;;;;;;5115425;28;20030;-77
2023/11/01 11:23:31;;;;;;;26.20;12.98;;;12.50;99.90;;;;;;5114344;28;20019;-75
2023/11/01 11:25:58;;;;;;;4.80;3.25;;;12.60;99.90;;;;;;5114711;28;20050;-74
2023/11/01 11:28:39;;;;;;;5.82;3.55;;;12.70;99.90;;;;;;5112534;28;20397;-75
2023/11/01 11:31:07;;;;;;;5.63;3.08;;;12.80;99.90;;;;;;5103749;28;20385;-75
2023/11/01 11:33:44;;;;;;;6.18;4.38;;;12.80;99.90;;;;;;5113722;28;20024;-74
2023/11/01 11:36:14;;;;;;;7.93;4.68;;;12.80;99.90;;;;;;5102406;28;20069;-75
2023/11/01 11:38:54;;;;;;;3.33;2.42;;;12.80;99.90;;;;;;5112643;28;20027;-76
2023/11/01 11:41:27;;;;;;;4.85;2.10;;;12.90;99.90;;;;;;5113877;28;20035;-75
2023/11/01 11:44:02;;;;;;;3.67;2.20;;;12.80;99.90;;;;;;5115177;27;20011;-75
2023/11/01 11:46:45;;;;;;;2.15;1.58;;;12.80;99.90;;;;;;5110535;28;20100;-75
2023/11/01 11:51:53;;;;;;;5.45;1.83;;;12.60;99.90;;;;;;5108322;28;20087;-76
2023/11/01 11:54:20;;;;;;;2.28;1.77;;;12.60;99.90;;;;;;5103460;28;20062;-82
2023/11/01 11:56:46;;;;;;;4.10;2.10;;;12.50;99.90;;;;;;5105471;28;20038;-82
2023/11/01 11:59:19;;;;;;;1.58;1.48;;;12.50;99.90;;;;;;5107501;28;20019;-81
2023/11/01 12:01:46;;;;;;;4.35;2.72;;;12.60;99.90;;;;;;5104714;28;20043;-82
2023/11/01 12:04:11;;;;;;;7.85;4.63;;;12.60;99.90;;;;;;5110178;28;20024;-82
2023/11/01 12:06:39;;;;;;;4.90;3.00;;;12.70;99.90;;;;;;5106143;28;20016;-82
2023/11/01 12:09:12;;;;;;;4.82;2.67;;;12.80;99.90;;;;;;5108159;28;20115;-82
2023/11/01 12:11:38;;;;;;;3.88;2.10;;;12.80;99.90;;;;;;5103220;28;20091;-82
2023/11/01 12:14:03;;;;;;;3.17;2.03;;;13.00;99.90;;;;;;5110912;28;20473;-82
2023/11/01 12:16:30;;;;;;;3.28;1.77;;;13.00;99.90;;;;;;5098795;28;20020;-82
2023/11/01 12:19:18;;;;;;;3.17;2.10;;;13.10;99.90;;;;;;5103865;28;20105;-83
2023/11/01 12:21:49;;;;;;;3.08;2.50;;;13.20;99.90;;;;;;5098060;28;20027;-83
2023/11/01 12:24:16;;;;;;;3.53;2.50;;;13.20;99.90;;;;;;5107658;28;20358;-83
2023/11/01 12:27:03;;;;;;;3.53;1.88;;;13.20;98.90;;;;;;5106995;28;20039;-82
2023/11/01 12:29:40;;;;;;;3.08;2.03;;;13.20;99.90;;;;;;5113057;28;20044;-77
2023/11/01 12:32:18;;;;;;;3.53;2.10;;;13.20;99.90;;;;;;5098290;28;20477;-77
2023/11/01 12:34:50;;;;;;;2.80;1.98;;;13.10;95.40;;;;;;5102747;28;20035;-77
2023/11/01 12:37:18;;;;;;;4.33;2.47;;;13.10;96.90;;;;;;5099992;28;20507;-77
2023/11/01 12:40:21;;;;;;;2.15;1.73;;;13.10;99.50;;;;;;5110566;28;20286;-77
2023/11/01 12:43:07;;;;;;;2.38;2.15;;;13.00;96.70;;;;;;5106369;28;20114;-77
2023/11/01 12:45:33;;;;;;;3.35;1.80;;;13.00;99.10;;;;;;5112191;28;20047;-77